Time;durP1;ratioP1;P1;durP2;ratioP2;P2;SDS_P1;SDS_P2;PMS_P1;PMS_P2;Temp;Humidity;BMP_temperature;BMP_pressure;BME280_temperature;BME280_humidity;BME280_pressure;Samples;Min_cycle;Max_cycle;Signal;HPM_P1;HPM_P2
2022/01/21 00:01:17;;;;;;;1.02;0.93;;;1.70;99.90;;;;;;5014441;28;20190;-69
2022/01/21 00:03:43;;;;;;;1.15;1.15;;;1.60;99.90;;;;;;5014743;28;20170;-69
2022/01/21 00:06:10;;;;;;;1.58;1.48;;;1.50;99.90;;;;;;5014711;28;20171;-71
2022/01/21 00:08:38;;;;;;;1.85;1.30;;;1.50;99.90;;;;;;5012930;28;20218;-70
2022/01/21 00:11:04;;;;;;;1.58;1.25;;;1.40;99.90;;;;;;5014381;28;20173;-71
2022/01/21 00:13:34;;;;;;;1.15;1.02;;;1.40;99.90;;;;;;5014400;28;20175;-69
2022/01/21 00:16:04;;;;;;;0.80;0.80;;;1.30;99.90;;;;;;5014127;28;20225;-68
2022/01/21 00:18:32;;;;;;;1.60;1.50;;;1.30;99.90;;;;;;5012219;28;20693;-69
2022/01/21 00:31:56;;;;;;;2.45;1.08;;;1.10;99.90;;;;;;5014299;28;20244;-66
2022/01/21 00:34:21;;;;;;;2.43;2.23;;;1.10;99.90;;;;;;5014125;28;20560;-68
2022/01/21 00:36:47;;;;;;;1.23;1.23;;;1.10;99.90;;;;;;5014100;28;20651;-69
2022/01/21 00:39:13;;;;;;;1.53;1.20;;;1.10;99.90;;;;;;5013784;28;20217;-70
2022/01/21 00:41:55;;;;;;;1.30;0.75;;;1.10;99.90;;;;;;5014166;28;20625;-68
2022/01/21 00:44:20;;;;;;;1.58;1.15;;;1.10;99.90;;;;;;5013840;28;20237;-67
2022/01/21 00:46:46;;;;;;;1.10;1.10;;;1.20;99.90;;;;;;5014132;28;20617;-69
2022/01/21 00:49:12;;;;;;;1.80;1.70;;;1.20;99.90;;;;;;5012223;28;20203;-71
2022/01/21 00:51:37;;;;;;;1.43;1.40;;;1.20;99.90;;;;;;5013929;28;20187;-69
2022/01/21 00:54:03;;;;;;;2.93;1.50;;;1.30;99.90;;;;;;5014052;28;20166;-68
2022/01/21 00:56:28;;;;;;;1.27;1.17;;;1.30;99.90;;;;;;5013830;28;20167;-68
2022/01/21 00:58:54;;;;;;;1.73;1.63;;;1.40;99.90;;;;;;5012980;28;20210;-68
2022/01/21 01:01:20;;;;;;;2.30;1.60;;;1.40;99.90;;;;;;5013961;28;20171;-66
2022/01/21 01:03:45;;;;;;;1.33;1.23;;;1.40;99.90;;;;;;5013729;28;20182;-69
2022/01/21 01:06:11;;;;;;;8.47;1.33;;;1.50;99.90;;;;;;5013503;28;20545;-70
2022/01/21 01:08:37;;;;;;;1.13;1.13;;;1.50;99.90;;;;;;5013266;28;20206;-69
2022/01/21 01:21:47;;;;;;;1.00;1.00;;;1.60;99.90;;;;;;5013838;28;20224;-70
2022/01/21 01:29:58;;;;;;;1.08;1.08;;;1.60;99.90;;;;;;5014229;28;20556;-70
2022/01/21 01:32:25;;;;;;;8.23;1.97;;;1.60;99.90;;;;;;5017771;28;20253;-69
2022/01/21 01:34:52;;;;;;;0.85;0.85;;;1.60;99.90;;;;;;5017584;28;20421;-69
2022/01/21 01:37:39;;;;;;;3.00;2.50;;;1.60;99.90;;;;;;5017458;28;20177;-66
2022/01/21 01:50:54;;;;;;;2.70;1.00;;;1.60;99.90;;;;;;5017171;28;20184;-69
2022/01/21 01:53:41;;;;;;;1.40;1.30;;;1.60;99.90;;;;;;5017097;28;20177;-68
2022/01/21 01:56:11;;;;;;;1.00;1.00;;;1.60;99.90;;;;;;5016849;28;20182;-70
2022/01/21 01:58:38;;;;;;;1.23;1.20;;;1.60;99.90;;;;;;5016734;28;20191;-70
2022/01/21 02:01:05;;;;;;;1.25;1.15;;;1.60;99.90;;;;;;5016936;28;20216;-69
2022/01/21 02:03:32;;;;;;;2.15;1.55;;;1.60;99.90;;;;;;5016795;28;20206;-69
2022/01/21 02:05:58;;;;;;;1.10;1.08;;;1.60;99.90;;;;;;5017315;28;20238;-68
2022/01/21 02:08:26;;;;;;;3.53;1.38;;;1.60;99.90;;;;;;5016760;28;20186;-69
2022/01/21 02:10:51;;;;;;;0.85;0.85;;;1.60;99.90;;;;;;5017239;28;20255;-67
2022/01/21 02:13:42;;;;;;;1.83;1.20;;;1.60;99.90;;;;;;5018199;28;20229;-68
2022/01/21 02:17:06;;;;;;;20.60;1.42;;;1.70;99.90;;;;;;5017381;28;20491;-69
2022/01/21 02:21:47;;;;;;;4.05;1.20;;;1.70;99.90;;;;;;5024102;28;20220;-68
2022/01/21 02:24:21;;;;;;;2.20;1.95;;;1.70;99.90;;;;;;5023343;28;20548;-67
2022/01/21 02:26:48;;;;;;;1.13;1.08;;;1.60;99.90;;;;;;5022417;28;20178;-67
2022/01/21 02:29:26;;;;;;;3.75;1.63;;;1.60;99.90;;;;;;5020435;28;20206;-68
2022/01/21 02:31:52;;;;;;;0.80;0.80;;;1.60;99.90;;;;;;5016076;28;20174;-68
2022/01/21 02:34:18;;;;;;;1.95;1.52;;;1.60;99.90;;;;;;5016588;28;20167;-69
2022/01/21 02:36:43;;;;;;;1.17;1.07;;;1.60;99.90;;;;;;5016569;28;20175;-68
2022/01/21 02:39:09;;;;;;;1.67;1.57;;;1.60;99.90;;;;;;5014777;28;20201;-68
2022/01/21 02:41:35;;;;;;;1.80;1.70;;;1.60;99.90;;;;;;5015888;28;20673;-68
2022/01/21 02:44:01;;;;;;;1.70;1.60;;;1.50;99.90;;;;;;5016450;28;20249;-69
2022/01/21 02:46:27;;;;;;;1.03;0.97;;;1.50;99.90;;;;;;5016397;28;20175;-69
2022/01/21 02:48:53;;;;;;;4.88;1.42;;;1.50;99.90;;;;;;5015572;28;20461;-67
2022/01/21 02:51:19;;;;;;;0.80;0.80;;;1.50;99.90;;;;;;5014634;28;20186;-69
2022/01/21 02:56:18;;;;;;;1.90;1.80;;;1.40;99.90;;;;;;5016259;28;20394;-68
2022/01/21 02:58:46;;;;;;;1.25;1.25;;;1.40;99.90;;;;;;5015406;28;20202;-69
2022/01/21 03:01:12;;;;;;;12.60;1.90;;;1.40;99.90;;;;;;5016101;28;20545;-68
2022/01/21 03:03:40;;;;;;;1.20;1.20;;;1.40;99.90;;;;;;5016002;28;20545;-69
2022/01/21 03:06:06;;;;;;;1.13;1.02;;;1.50;99.90;;;;;;5015920;28;20175;-68
2022/01/21 03:08:31;;;;;;;4.40;2.17;;;1.50;99.90;;;;;;5013703;28;20198;-69
2022/01/21 03:10:57;;;;;;;2.07;1.93;;;1.50;99.90;;;;;;5015973;28;20167;-69
2022/01/21 03:13:23;;;;;;;1.33;1.00;;;1.50;99.90;;;;;;5015725;28;20167;-69
2022/01/21 03:15:50;;;;;;;9.40;1.38;;;1.60;99.90;;;;;;5015637;28;20265;-68
2022/01/21 03:18:16;;;;;;;0.88;0.80;;;1.60;99.90;;;;;;5015068;28;20576;-67
2022/01/21 03:20:42;;;;;;;5.27;1.30;;;1.60;99.90;;;;;;5015460;28;20167;-69
2022/01/21 03:23:08;;;;;;;1.52;1.30;;;1.60;99.90;;;;;;5015346;28;20422;-68
2022/01/21 03:25:35;;;;;;;1.23;1.23;;;1.70;99.90;;;;;;5015633;28;20292;-69
2022/01/21 03:28:01;;;;;;;2.85;1.83;;;1.70;99.90;;;;;;5015072;28;20194;-68
2022/01/21 03:30:26;;;;;;;0.90;0.90;;;1.70;99.90;;;;;;5015300;28;20186;-67
2022/01/21 03:32:52;;;;;;;1.00;1.00;;;1.70;99.90;;;;;;5015464;28;20171;-68
2022/01/21 03:35:18;;;;;;;1.93;1.40;;;1.70;99.90;;;;;;5015336;28;20691;-68
2022/01/21 03:37:43;;;;;;;3.27;1.10;;;1.70;99.90;;;;;;5014626;28;20181;-71
2022/01/21 03:40:09;;;;;;;1.97;1.60;;;1.70;99.90;;;;;;5015618;28;20601;-69
2022/01/21 03:42:35;;;;;;;1.05;0.98;;;1.60;99.90;;;;;;5015424;28;20525;-68
2022/01/21 03:45:02;;;;;;;1.17;1.17;;;1.60;99.90;;;;;;5015203;28;20167;-70
2022/01/21 03:47:28;;;;;;;4.20;1.67;;;1.60;99.90;;;;;;5014858;28;20581;-67
2022/01/21 03:49:57;;;;;;;3.03;2.80;;;1.50;99.90;;;;;;5014811;28;20222;-69
2022/01/21 03:52:22;;;;;;;1.40;1.30;;;1.40;99.90;;;;;;5013448;28;20257;-68
2022/01/21 03:54:48;;;;;;;1.23;1.20;;;1.40;99.90;;;;;;5013869;28;20167;-68
2022/01/21 03:57:14;;;;;;;4.30;1.37;;;1.40;99.90;;;;;;5015149;28;20174;-67
2022/01/21 03:59:40;;;;;;;5.77;2.97;;;1.40;99.90;;;;;;5014340;28;20194;-68
2022/01/21 04:02:06;;;;;;;0.90;0.90;;;1.40;99.90;;;;;;5014678;28;20198;-67
2022/01/21 04:04:32;;;;;;;1.92;1.33;;;1.40;99.90;;;;;;5014776;28;20181;-67
2022/01/21 04:06:58;;;;;;;6.53;2.47;;;1.40;99.90;;;;;;5014342;28;20174;-69
2022/01/21 04:09:24;;;;;;;1.50;1.23;;;1.40;99.90;;;;;;5014102;28;20193;-68
2022/01/21 04:11:50;;;;;;;1.57;1.47;;;1.30;99.90;;;;;;5014614;28;20171;-69
2022/01/21 04:14:16;;;;;;;1.65;1.55;;;1.30;99.90;;;;;;5014583;28;20166;-69
2022/01/21 04:16:41;;;;;;;4.87;1.73;;;1.30;99.90;;;;;;5014526;28;20171;-69
2022/01/21 04:19:08;;;;;;;3.10;2.97;;;1.30;99.90;;;;;;5013944;28;20200;-69
2022/01/21 04:21:34;;;;;;;5.05;1.50;;;1.30;99.90;;;;;;5014340;28;20589;-68
2022/01/21 04:24:01;;;;;;;1.17;1.17;;;1.30;99.90;;;;;;5014521;28;20193;-68
2022/01/21 04:26:27;;;;;;;1.58;1.00;;;1.30;99.90;;;;;;5014498;28;20171;-68
2022/01/21 04:28:52;;;;;;;1.57;1.43;;;1.30;99.90;;;;;;5013508;28;20219;-68
2022/01/21 04:31:18;;;;;;;2.63;1.47;;;1.30;99.90;;;;;;5014154;28;20529;-68
2022/01/21 04:33:44;;;;;;;1.07;1.00;;;1.30;99.90;;;;;;5014396;28;20213;-68
2022/01/21 04:36:09;;;;;;;1.93;1.70;;;1.30;99.90;;;;;;5014412;28;20178;-68
2022/01/21 04:38:36;;;;;;;4.50;2.00;;;1.30;99.90;;;;;;5014083;28;20178;-67
2022/01/21 04:41:18;;;;;;;1.50;1.50;;;1.30;99.90;;;;;;5012772;28;20316;-67
2022/01/21 04:49:12;;;;;;;1.75;1.63;;;1.20;99.90;;;;;;5014645;28;20209;-69
2022/01/21 04:51:42;;;;;;;1.23;1.23;;;1.10;99.90;;;;;;5013990;28;20185;-68
2022/01/21 04:54:08;;;;;;;5.40;1.70;;;1.10;99.90;;;;;;5014160;28;20191;-68
2022/01/21 04:56:33;;;;;;;2.70;1.67;;;1.10;99.90;;;;;;5014303;28;20546;-67
2022/01/21 04:58:59;;;;;;;1.47;1.37;;;1.00;99.90;;;;;;5013122;28;20453;-69
2022/01/21 05:01:24;;;;;;;1.33;1.23;;;1.10;99.90;;;;;;5012521;28;20181;-70
2022/01/21 05:03:51;;;;;;;1.80;1.70;;;1.00;99.90;;;;;;5014289;28;20171;-68
2022/01/21 05:06:17;;;;;;;2.22;2.13;;;1.00;99.90;;;;;;5013492;28;20636;-68
2022/01/21 05:08:47;;;;;;;2.70;2.35;;;1.00;99.90;;;;;;5013222;28;20209;-68
2022/01/21 05:11:16;;;;;;;3.15;1.92;;;0.90;99.90;;;;;;5012772;28;20174;-68
2022/01/21 05:13:45;;;;;;;1.45;1.30;;;0.90;99.90;;;;;;5013488;28;20192;-69
2022/01/21 05:18:57;;;;;;;2.15;1.80;;;0.90;99.90;;;;;;5013173;28;20209;-70
2022/01/21 05:21:23;;;;;;;2.03;1.92;;;0.90;99.90;;;;;;5013917;28;20171;-68
2022/01/21 05:23:48;;;;;;;4.27;2.17;;;1.00;99.90;;;;;;5028411;28;20187;-68
2022/01/21 05:26:14;;;;;;;4.10;3.47;;;1.00;99.90;;;;;;5013669;28;20416;-68
2022/01/21 05:28:40;;;;;;;1.57;1.47;;;1.00;99.90;;;;;;5013057;28;20201;-70
2022/01/21 05:31:05;;;;;;;1.13;0.93;;;1.00;99.90;;;;;;5013685;28;20185;-68
2022/01/21 05:33:31;;;;;;;1.53;1.13;;;1.00;99.90;;;;;;5013659;28;20405;-67
2022/01/21 05:35:57;;;;;;;2.27;1.43;;;1.00;99.90;;;;;;5013541;28;20655;-68
2022/01/21 05:38:22;;;;;;;1.43;1.43;;;1.10;99.90;;;;;;5013241;28;20174;-69
2022/01/21 05:40:50;;;;;;;3.70;1.83;;;1.10;99.90;;;;;;5013477;28;20706;-69
2022/01/21 05:43:15;;;;;;;4.05;2.97;;;1.10;99.90;;;;;;5013486;28;20166;-70
2022/01/21 05:48:25;;;;;;;1.55;1.45;;;1.20;99.90;;;;;;5012851;28;20233;-68
2022/01/21 05:50:51;;;;;;;6.10;2.80;;;1.20;99.90;;;;;;5013158;28;20614;-68
2022/01/21 05:53:16;;;;;;;2.83;1.33;;;1.20;99.90;;;;;;5012867;28;20205;-67
2022/01/21 05:55:43;;;;;;;2.33;2.13;;;1.20;99.90;;;;;;5013075;28;20182;-67
2022/01/21 05:58:13;;;;;;;1.08;1.05;;;1.30;99.90;;;;;;5012694;28;20277;-68
2022/01/21 06:00:43;;;;;;;1.60;1.50;;;1.30;99.90;;;;;;5012937;28;20195;-68
2022/01/21 06:03:09;;;;;;;1.23;1.23;;;1.30;99.90;;;;;;5013129;28;20249;-67
2022/01/21 06:05:35;;;;;;;7.82;1.10;;;1.30;99.90;;;;;;5012944;28;20195;-69
2022/01/21 06:08:05;;;;;;;1.43;1.33;;;1.30;99.90;;;;;;5010958;28;20613;-66
2022/01/21 06:10:31;;;;;;;5.38;2.50;;;1.30;99.90;;;;;;5011615;28;20206;-68
2022/01/21 06:12:57;;;;;;;1.70;1.60;;;1.30;99.90;;;;;;5027858;28;20633;-68
2022/01/21 06:15:24;;;;;;;2.17;2.05;;;1.30;99.90;;;;;;5012622;28;20175;-69
2022/01/21 06:17:49;;;;;;;1.55;1.45;;;1.30;99.90;;;;;;5012920;28;20629;-68
2022/01/21 06:20:15;;;;;;;1.77;1.67;;;1.30;99.90;;;;;;5016447;28;20194;-69
2022/01/21 06:22:41;;;;;;;4.03;1.33;;;1.30;99.90;;;;;;5016395;28;20175;-68
2022/01/21 06:25:07;;;;;;;2.77;1.57;;;1.30;99.90;;;;;;5016374;28;20179;-66
2022/01/21 06:27:35;;;;;;;1.30;1.30;;;1.30;99.90;;;;;;5015903;28;20195;-69
2022/01/21 06:30:01;;;;;;;3.53;1.75;;;1.40;99.90;;;;;;5015682;28;20281;-70
2022/01/21 06:32:27;;;;;;;2.30;1.73;;;1.40;99.90;;;;;;5016062;28;20254;-67
2022/01/21 06:34:52;;;;;;;7.00;2.43;;;1.40;99.90;;;;;;5016155;28;20425;-66
2022/01/21 06:37:18;;;;;;;1.90;1.80;;;1.40;99.90;;;;;;5016362;28;20228;-65
2022/01/21 06:39:44;;;;;;;1.47;1.37;;;1.40;99.90;;;;;;5015555;28;20248;-67
2022/01/21 06:42:10;;;;;;;4.00;3.00;;;1.40;99.90;;;;;;5015924;28;20178;-66
2022/01/21 06:44:36;;;;;;;3.00;1.53;;;1.40;99.90;;;;;;5015948;28;20651;-68
2022/01/21 06:47:02;;;;;;;2.17;1.55;;;1.40;99.90;;;;;;5015771;28;20175;-68
2022/01/21 06:49:27;;;;;;;1.45;1.35;;;1.50;99.90;;;;;;5015340;28;20561;-66
2022/01/21 06:51:53;;;;;;;5.70;2.90;;;1.50;99.90;;;;;;5015807;28;20163;-67
2022/01/21 06:54:18;;;;;;;2.97;2.37;;;1.50;99.90;;;;;;5016002;28;20229;-65
2022/01/21 06:56:44;;;;;;;3.63;2.43;;;1.50;99.90;;;;;;5015181;28;20198;-67
2022/01/21 06:59:10;;;;;;;2.37;2.17;;;1.50;99.90;;;;;;5014965;28;20201;-68
2022/01/21 07:01:36;;;;;;;2.27;2.07;;;1.50;99.90;;;;;;5015501;28;20175;-69
2022/01/21 07:04:01;;;;;;;3.03;1.40;;;1.50;99.90;;;;;;5015113;28;20258;-67
2022/01/21 07:06:27;;;;;;;2.57;2.00;;;1.60;99.90;;;;;;5015321;28;20427;-68
2022/01/21 07:08:52;;;;;;;2.03;1.40;;;1.60;99.90;;;;;;5015427;28;20198;-68
2022/01/21 07:11:18;;;;;;;2.67;1.80;;;1.60;99.90;;;;;;5015403;28;20229;-67
2022/01/21 07:13:44;;;;;;;1.30;1.20;;;1.60;99.90;;;;;;5003209;28;20617;-67
2022/01/21 07:16:10;;;;;;;11.83;2.00;;;1.60;99.90;;;;;;4996083;28;20618;-68
2022/01/21 07:18:35;;;;;;;2.30;1.70;;;1.70;99.90;;;;;;4995816;28;20192;-68
2022/01/21 07:21:01;;;;;;;3.03;2.70;;;1.70;99.90;;;;;;4996400;28;20254;-67
2022/01/21 07:23:26;;;;;;;1.40;1.30;;;1.60;99.90;;;;;;5014906;28;20179;-69
2022/01/21 07:25:52;;;;;;;1.83;1.67;;;1.60;99.90;;;;;;5015660;28;20182;-70
2022/01/21 07:28:18;;;;;;;5.50;2.17;;;1.60;99.90;;;;;;5014173;28;20195;-68
2022/01/21 07:30:44;;;;;;;2.50;2.27;;;1.60;99.90;;;;;;5014989;28;20199;-67
2022/01/21 07:33:09;;;;;;;3.83;2.83;;;1.70;99.90;;;;;;5015233;28;20431;-68
2022/01/21 07:35:35;;;;;;;3.03;2.00;;;1.70;99.90;;;;;;5015235;28;20171;-68
2022/01/21 07:38:01;;;;;;;5.13;2.60;;;1.70;99.90;;;;;;5014792;28;20255;-67
2022/01/21 07:40:27;;;;;;;1.90;1.83;;;1.70;99.90;;;;;;5014870;28;20248;-67
2022/01/21 07:42:53;;;;;;;4.35;2.70;;;1.90;99.90;;;;;;5014703;28;20505;-69
2022/01/21 07:45:19;;;;;;;1.80;1.70;;;2.00;99.90;;;;;;5014993;28;20281;-68
2022/01/21 07:47:44;;;;;;;2.87;2.67;;;2.10;99.90;;;;;;5015090;28;20453;-66
2022/01/21 07:50:10;;;;;;;4.63;2.13;;;2.30;99.90;;;;;;5014696;28;20677;-66
2022/01/21 07:52:36;;;;;;;2.77;2.10;;;2.60;99.90;;;;;;5015154;28;20552;-69
2022/01/21 07:55:02;;;;;;;3.03;1.97;;;2.90;99.90;;;;;;5015009;28;20167;-68
2022/01/21 07:57:27;;;;;;;2.27;2.17;;;3.00;99.90;;;;;;5014363;28;20183;-67
2022/01/21 07:59:53;;;;;;;9.27;1.77;;;3.10;99.90;;;;;;5014131;28;20226;-67
2022/01/21 08:02:19;;;;;;;4.70;2.40;;;3.10;99.90;;;;;;5014601;28;20241;-69
2022/01/21 08:04:44;;;;;;;2.13;1.93;;;3.10;99.90;;;;;;5014659;28;20692;-69
2022/01/21 08:07:11;;;;;;;1.80;1.43;;;3.10;99.90;;;;;;5014574;28;20175;-69
2022/01/21 08:09:37;;;;;;;1.92;1.83;;;3.10;99.90;;;;;;5014346;28;20793;-68
2022/01/21 08:12:03;;;;;;;5.40;2.03;;;3.10;99.90;;;;;;5014091;28;20246;-68
2022/01/21 08:14:29;;;;;;;3.80;3.50;;;3.10;99.90;;;;;;5013684;28;20421;-69
2022/01/21 08:16:55;;;;;;;5.80;2.20;;;3.10;99.90;;;;;;5014295;28;20240;-67
2022/01/21 08:19:21;;;;;;;1.97;1.87;;;3.10;99.90;;;;;;5014280;28;20209;-68
2022/01/21 08:21:46;;;;;;;4.65;2.92;;;3.10;99.90;;;;;;5014492;28;20907;-65
2022/01/21 08:24:12;;;;;;;3.30;3.00;;;3.20;99.90;;;;;;5014260;28;20179;-69
2022/01/21 08:26:38;;;;;;;5.07;2.43;;;3.20;99.90;;;;;;5014145;28;20179;-64
2022/01/21 08:29:06;;;;;;;9.37;2.73;;;3.20;99.90;;;;;;5013256;28;20294;-70
2022/01/21 08:31:33;;;;;;;5.85;2.85;;;3.10;99.90;;;;;;5013814;28;20398;-70
2022/01/21 08:33:59;;;;;;;2.30;1.50;;;3.10;99.90;;;;;;5013575;28;20167;-68
2022/01/21 08:36:25;;;;;;;2.10;1.90;;;3.10;99.90;;;;;;5013411;28;20202;-69
2022/01/21 08:38:52;;;;;;;3.33;2.50;;;3.00;99.90;;;;;;5013097;28;20241;-67
2022/01/21 08:41:19;;;;;;;4.30;2.10;;;3.10;99.90;;;;;;5012579;28;20534;-69
2022/01/21 08:43:45;;;;;;;3.33;3.03;;;3.00;99.90;;;;;;5013581;28;20174;-71
2022/01/21 08:46:11;;;;;;;1.98;1.88;;;3.00;99.90;;;;;;5014045;28;20166;-69
2022/01/21 08:48:37;;;;;;;2.77;2.57;;;3.00;99.90;;;;;;5013623;28;20719;-67
2022/01/21 08:51:09;;;;;;;3.80;2.67;;;3.00;99.90;;;;;;5013883;28;20756;-69
2022/01/21 08:53:38;;;;;;;2.70;2.55;;;3.00;99.90;;;;;;5013978;28;20542;-67
2022/01/21 08:56:13;;;;;;;3.08;2.58;;;3.00;99.90;;;;;;5013720;28;20190;-69
2022/01/21 08:58:40;;;;;;;4.53;2.10;;;3.00;99.90;;;;;;5013314;28;20715;-67
2022/01/21 09:01:08;;;;;;;2.65;2.00;;;3.00;99.90;;;;;;5013773;28;20253;-66
2022/01/21 09:03:34;;;;;;;12.00;3.28;;;3.00;99.90;;;;;;5013833;28;20178;-65
2022/01/21 09:06:00;;;;;;;2.57;2.37;;;3.00;99.90;;;;;;5013910;28;20179;-67
2022/01/21 09:08:30;;;;;;;2.53;2.07;;;3.10;99.90;;;;;;5013311;28;20205;-63
2022/01/21 09:10:57;;;;;;;2.95;2.75;;;3.10;99.90;;;;;;5014150;28;20394;-68
2022/01/21 09:13:27;;;;;;;11.27;5.20;;;3.10;99.90;;;;;;5013853;28;20167;-70
2022/01/21 09:15:54;;;;;;;5.68;3.05;;;3.10;99.90;;;;;;5013490;28;20174;-68
2022/01/21 09:18:20;;;;;;;4.40;3.00;;;3.20;99.90;;;;;;5013624;28;20600;-69
2022/01/21 09:20:47;;;;;;;6.97;4.53;;;3.20;99.90;;;;;;5013780;28;20198;-69
2022/01/21 09:23:13;;;;;;;3.47;3.17;;;3.20;99.90;;;;;;5013542;28;20429;-68
2022/01/21 09:25:39;;;;;;;2.78;2.58;;;3.30;99.90;;;;;;5013698;28;20214;-71
2022/01/21 09:28:05;;;;;;;3.20;2.90;;;3.40;99.90;;;;;;5013117;28;20233;-69
2022/01/21 09:30:31;;;;;;;3.30;3.10;;;3.40;99.90;;;;;;5012145;28;20429;-70
2022/01/21 09:32:57;;;;;;;6.97;3.28;;;3.40;99.90;;;;;;5013441;28;20398;-70
2022/01/21 09:35:24;;;;;;;2.13;1.90;;;3.50;99.90;;;;;;5012438;28;20202;-66
2022/01/21 09:37:49;;;;;;;7.75;3.35;;;3.60;99.90;;;;;;5013361;28;20171;-69
2022/01/21 09:40:15;;;;;;;3.57;3.30;;;3.60;99.90;;;;;;5013819;28;20192;-69
2022/01/21 09:42:41;;;;;;;4.77;2.63;;;3.60;99.90;;;;;;5013236;28;20176;-70
2022/01/21 09:45:14;;;;;;;5.70;3.10;;;3.60;99.90;;;;;;5012120;28;20484;-68
2022/01/21 09:47:49;;;;;;;4.57;2.15;;;3.70;99.90;;;;;;5013580;28;20187;-69
2022/01/21 09:50:17;;;;;;;9.52;3.80;;;3.90;99.90;;;;;;5012839;28;20752;-69
2022/01/21 09:52:49;;;;;;;5.03;2.00;;;4.00;99.90;;;;;;5015492;28;20171;-71
2022/01/21 09:55:20;;;;;;;3.35;3.00;;;4.10;99.90;;;;;;5016800;28;20198;-69
2022/01/21 09:57:47;;;;;;;4.10;1.50;;;4.20;99.90;;;;;;5017630;28;20226;-71
2022/01/21 10:00:15;;;;;;;2.65;2.28;;;4.30;99.90;;;;;;5018271;28;20183;-73
2022/01/21 10:02:42;;;;;;;4.10;2.40;;;4.30;99.90;;;;;;5018022;28;20178;-68
2022/01/21 10:05:09;;;;;;;2.38;1.95;;;4.40;99.90;;;;;;5018027;28;20253;-69
2022/01/21 10:07:38;;;;;;;4.18;2.60;;;4.30;99.90;;;;;;5016681;28;20193;-71
2022/01/21 10:10:08;;;;;;;2.72;2.22;;;4.30;99.90;;;;;;5017149;28;20203;-66
2022/01/21 10:12:43;;;;;;;5.50;2.72;;;4.40;99.90;;;;;;5016833;28;20598;-67
2022/01/21 10:15:10;;;;;;;4.82;2.90;;;4.40;99.90;;;;;;5016687;28;20189;-67
2022/01/21 10:17:37;;;;;;;24.10;3.05;;;4.30;99.90;;;;;;5016308;28;20171;-66
2022/01/21 10:20:22;;;;;;;3.33;2.67;;;4.20;99.90;;;;;;5016923;28;20214;-68
2022/01/21 10:23:02;;;;;;;6.50;3.42;;;4.00;99.90;;;;;;5016693;28;20174;-64
2022/01/21 10:25:30;;;;;;;5.28;2.33;;;4.00;99.90;;;;;;5016776;28;20186;-68
2022/01/21 10:28:17;;;;;;;4.05;2.58;;;3.90;99.90;;;;;;5015863;28;20194;-69
2022/01/21 10:30:45;;;;;;;2.33;2.15;;;3.90;99.90;;;;;;5016460;28;20169;-69
2022/01/21 10:33:19;;;;;;;2.20;2.05;;;3.90;99.90;;;;;;5016533;28;20234;-67
2022/01/21 10:35:48;;;;;;;3.38;3.08;;;4.00;99.90;;;;;;5016280;28;20167;-68
2022/01/21 10:38:30;;;;;;;3.08;2.30;;;3.90;99.90;;;;;;5014551;28;20198;-66
2022/01/21 10:41:07;;;;;;;9.35;5.13;;;4.00;99.90;;;;;;5016014;28;20733;-72
2022/01/21 10:43:33;;;;;;;3.10;2.80;;;4.00;99.90;;;;;;5015814;28;20186;-67
2022/01/21 10:46:00;;;;;;;4.87;2.50;;;4.10;99.90;;;;;;5014812;28;20186;-68
2022/01/21 10:48:51;;;;;;;4.43;3.42;;;4.20;99.90;;;;;;5015237;28;20191;-68
2022/01/21 10:51:20;;;;;;;3.28;2.13;;;4.20;99.90;;;;;;5016334;28;20218;-67
2022/01/21 10:53:46;;;;;;;4.05;3.05;;;4.40;99.90;;;;;;5016172;28;20507;-70
2022/01/21 10:56:15;;;;;;;4.80;4.40;;;4.50;99.90;;;;;;5015443;28;20261;-69
2022/01/21 10:58:47;;;;;;;2.13;2.00;;;4.70;99.90;;;;;;5015326;28;20739;-68
2022/01/21 11:01:18;;;;;;;1.70;1.60;;;4.70;99.90;;;;;;5015854;28;20173;-72
2022/01/21 11:04:05;;;;;;;1.85;1.67;;;4.80;99.90;;;;;;5015079;28;20173;-67
2022/01/21 11:06:42;;;;;;;1.83;1.50;;;4.80;99.90;;;;;;5015467;28;20175;-69
2022/01/21 11:09:23;;;;;;;3.10;1.95;;;4.90;99.90;;;;;;5015008;28;20206;-71
2022/01/21 11:12:16;;;;;;;2.85;2.03;;;4.90;99.90;;;;;;5015251;28;20264;-67
2022/01/21 11:15:03;;;;;;;4.15;2.22;;;4.90;99.90;;;;;;5013873;28;20171;-68
2022/01/21 11:17:29;;;;;;;2.03;1.88;;;4.90;99.90;;;;;;5013166;28;20586;-69
2022/01/21 11:20:07;;;;;;;3.03;2.40;;;4.80;99.90;;;;;;5013118;28;20275;-67
2022/01/21 11:22:52;;;;;;;2.13;1.92;;;4.90;99.90;;;;;;5013356;28;20748;-69
2022/01/21 11:25:38;;;;;;;4.22;1.80;;;5.00;99.90;;;;;;5013433;28;20180;-68
2022/01/21 11:28:03;;;;;;;2.15;1.95;;;5.00;99.90;;;;;;4993165;28;20600;-67
2022/01/21 11:30:29;;;;;;;1.80;1.57;;;4.90;99.90;;;;;;4994919;28;20252;-67
2022/01/21 11:32:55;;;;;;;5.30;2.10;;;4.90;99.90;;;;;;4995562;28;20171;-67
2022/01/21 11:35:21;;;;;;;10.33;2.57;;;4.80;99.90;;;;;;4995588;28;20181;-67
2022/01/21 11:37:48;;;;;;;2.20;2.03;;;4.70;99.90;;;;;;4995272;28;20181;-68
2022/01/21 11:40:14;;;;;;;1.65;1.48;;;4.70;99.90;;;;;;4995416;28;20197;-66
2022/01/21 11:42:41;;;;;;;2.70;2.17;;;4.70;99.90;;;;;;5014851;28;20182;-69
2022/01/21 11:45:19;;;;;;;3.33;1.88;;;4.70;99.90;;;;;;5013685;28;20192;-67
2022/01/21 11:48:12;;;;;;;2.10;2.00;;;4.80;99.90;;;;;;5014543;28;20618;-67
2022/01/21 11:50:37;;;;;;;3.40;2.03;;;4.80;99.90;;;;;;5014454;28;20209;-69
2022/01/21 11:53:04;;;;;;;6.80;2.65;;;4.80;99.90;;;;;;5014465;28;20174;-68
2022/01/21 11:55:50;;;;;;;2.22;1.90;;;4.90;99.90;;;;;;5013055;28;20640;-69
2022/01/21 11:58:21;;;;;;;14.38;2.13;;;4.90;99.90;;;;;;5013902;28;20194;-69
2022/01/21 12:00:49;;;;;;;2.03;1.92;;;4.80;99.90;;;;;;5014374;28;20598;-69
2022/01/21 12:03:21;;;;;;;2.88;1.70;;;4.80;99.90;;;;;;5014549;28;20221;-69
2022/01/21 12:05:47;;;;;;;4.50;1.77;;;4.70;99.90;;;;;;5014378;28;20176;-69
2022/01/21 12:08:13;;;;;;;3.15;1.52;;;4.70;99.90;;;;;;5013975;28;20552;-65
2022/01/21 12:10:42;;;;;;;3.70;2.10;;;4.60;99.90;;;;;;5013761;28;20253;-65
2022/01/21 12:13:19;;;;;;;4.63;2.20;;;4.50;99.90;;;;;;5014324;28;20167;-65
2022/01/21 12:21:23;;;;;;;2.10;1.50;;;4.40;99.90;;;;;;5014350;28;20215;-62
2022/01/21 12:23:49;;;;;;;2.70;1.65;;;4.40;99.90;;;;;;5014034;28;20608;-64
2022/01/21 12:26:17;;;;;;;3.15;2.47;;;4.30;99.90;;;;;;5013680;28;20238;-66
2022/01/21 12:28:59;;;;;;;4.68;2.15;;;4.30;99.90;;;;;;5013428;28;20294;-64
2022/01/21 12:31:54;;;;;;;1.77;1.50;;;4.20;99.90;;;;;;5014413;28;20560;-63
2022/01/21 12:34:20;;;;;;;3.08;2.38;;;4.20;99.90;;;;;;5014072;28;20163;-64
2022/01/21 12:36:53;;;;;;;2.33;2.17;;;4.20;99.90;;;;;;5013960;28;20175;-65
2022/01/21 12:39:54;;;;;;;5.57;1.40;;;4.20;99.90;;;;;;5013494;28;20202;-65
2022/01/21 12:42:27;;;;;;;1.25;1.02;;;4.30;99.90;;;;;;5011939;28;20520;-69
2022/01/21 12:45:02;;;;;;;2.38;2.17;;;4.40;99.90;;;;;;5013544;28;20178;-68
2022/01/21 12:47:35;;;;;;;8.57;2.17;;;4.50;99.90;;;;;;5013145;28;20229;-67
2022/01/21 12:50:31;;;;;;;2.65;1.42;;;4.50;99.90;;;;;;5013370;28;20214;-68
2022/01/21 12:53:16;;;;;;;6.15;2.05;;;4.60;99.90;;;;;;5013817;28;20175;-63
2022/01/21 12:56:02;;;;;;;1.42;1.33;;;4.60;99.90;;;;;;5013251;28;20527;-66
2022/01/21 12:58:30;;;;;;;4.32;1.27;;;4.60;99.90;;;;;;5012914;28;20655;-64
2022/01/21 13:01:04;;;;;;;16.95;1.48;;;4.50;99.90;;;;;;5012272;28;20192;-69
2022/01/21 13:03:46;;;;;;;1.48;1.48;;;4.50;99.90;;;;;;5010588;28;20180;-67
2022/01/21 13:06:20;;;;;;;1.38;1.25;;;4.50;99.90;;;;;;5009401;28;20171;-66
2022/01/21 13:09:10;;;;;;;3.50;2.03;;;4.50;99.90;;;;;;5011152;28;20225;-68
2022/01/21 13:11:42;;;;;;;4.55;1.92;;;4.50;99.90;;;;;;5010031;28;20172;-66
2022/01/21 13:14:33;;;;;;;1.60;1.50;;;4.50;99.90;;;;;;5011315;28;20183;-66
2022/01/21 13:17:05;;;;;;;1.17;1.02;;;4.50;99.90;;;;;;5011568;28;20179;-67
2022/01/21 13:19:43;;;;;;;1.98;1.08;;;4.40;99.90;;;;;;5011309;28;20216;-66
2022/01/21 13:22:28;;;;;;;1.10;0.93;;;4.40;99.90;;;;;;5009217;28;20189;-65
2022/01/21 13:25:08;;;;;;;1.90;1.40;;;4.20;99.90;;;;;;5009003;28;20759;-67
2022/01/21 13:27:36;;;;;;;4.97;2.20;;;4.40;99.90;;;;;;5008945;28;20446;-64
2022/01/21 13:30:07;;;;;;;4.28;1.55;;;4.50;99.90;;;;;;5016526;28;20263;-66
2022/01/21 13:32:33;;;;;;;4.53;1.55;;;4.50;99.90;;;;;;5016852;28;20174;-68
2022/01/21 13:35:13;;;;;;;2.37;0.80;;;4.50;99.90;;;;;;5016332;28;20534;-66
2022/01/21 13:37:41;;;;;;;7.32;2.03;;;4.50;99.90;;;;;;5016517;28;20447;-67
2022/01/21 13:40:08;;;;;;;2.65;1.42;;;4.50;99.90;;;;;;5016687;28;20244;-66
2022/01/21 13:42:35;;;;;;;5.22;1.27;;;4.50;99.90;;;;;;5017064;28;20220;-68
2022/01/21 13:45:08;;;;;;;1.70;1.60;;;4.50;99.90;;;;;;5016829;28;20171;-67
2022/01/21 13:47:39;;;;;;;6.47;1.17;;;4.50;99.90;;;;;;5014281;28;20191;-67
2022/01/21 13:50:23;;;;;;;2.67;1.40;;;4.50;99.90;;;;;;5016591;28;20608;-67
2022/01/21 13:53:04;;;;;;;1.25;1.15;;;4.60;99.90;;;;;;5016281;28;20173;-66
2022/01/21 13:55:43;;;;;;;1.83;1.58;;;4.70;99.90;;;;;;5015668;28;20645;-66
2022/01/21 13:58:20;;;;;;;2.45;1.38;;;4.70;99.90;;;;;;5014452;28;20191;-69
2022/01/21 14:00:46;;;;;;;1.10;1.00;;;4.70;99.90;;;;;;5016660;28;20182;-67
2022/01/21 14:03:24;;;;;;;5.50;1.10;;;4.70;99.90;;;;;;5016127;28;20190;-67
2022/01/21 14:06:04;;;;;;;2.05;1.95;;;4.70;99.90;;;;;;5016708;28;20202;-68
2022/01/21 14:08:33;;;;;;;0.80;0.80;;;4.70;99.90;;;;;;5015361;28;20227;-65